sensor_id;sensor_type;location;lat;lon;timestamp;P1;durP1;ratioP1;P2;durP2;ratioP2
19205;SDS011;59358;52.134;5.596;2023-05-10T00:01:22;62.78;;;31.20;;
19205;SDS011;59358;52.134;5.596;2023-05-10T00:03:49;58.58;;;31.95;;
19205;SDS011;59358;52.134;5.596;2023-05-10T00:06:16;60.10;;;29.52;;
19205;SDS011;59358;52.134;5.596;2023-05-10T00:08:43;60.10;;;31.23;;
19205;SDS011;59358;52.134;5.596;2023-05-10T00:11:11;63.17;;;32.33;;
19205;SDS011;59358;52.134;5.596;2023-05-10T00:13:38;60.05;;;31.48;;
19205;SDS011;59358;52.134;5.596;2023-05-10T00:16:05;72.25;;;34.15;;
19205;SDS011;59358;52.134;5.596;2023-05-10T00:18:32;74.47;;;35.67;;
19205;SDS011;59358;52.134;5.596;2023-05-10T00:20:59;65.75;;;33.22;;
19205;SDS011;59358;52.134;5.596;2023-05-10T00:23:26;80.88;;;36.97;;
19205;SDS011;59358;52.134;5.596;2023-05-10T00:25:53;82.97;;;38.78;;
19205;SDS011;59358;52.134;5.596;2023-05-10T00:28:21;89.82;;;38.85;;
19205;SDS011;59358;52.134;5.596;2023-05-10T00:30:48;87.22;;;38.67;;
19205;SDS011;59358;52.134;5.596;2023-05-10T00:33:14;93.43;;;40.70;;
19205;SDS011;59358;52.134;5.596;2023-05-10T00:35:41;90.85;;;40.33;;
19205;SDS011;59358;52.134;5.596;2023-05-10T00:38:08;102.78;;;41.97;;
19205;SDS011;59358;52.134;5.596;2023-05-10T00:40:35;102.50;;;43.05;;
19205;SDS011;59358;52.134;5.596;2023-05-10T00:43:02;109.40;;;45.10;;
19205;SDS011;59358;52.134;5.596;2023-05-10T00:45:30;109.72;;;44.63;;
19205;SDS011;59358;52.134;5.596;2023-05-10T00:47:58;104.97;;;44.33;;
19205;SDS011;59358;52.134;5.596;2023-05-10T00:50:27;115.43;;;46.30;;
19205;SDS011;59358;52.134;5.596;2023-05-10T00:52:54;110.57;;;44.80;;
19205;SDS011;59358;52.134;5.596;2023-05-10T00:55:21;112.00;;;46.03;;
19205;SDS011;59358;52.134;5.596;2023-05-10T00:57:48;111.05;;;45.10;;
19205;SDS011;59358;52.134;5.596;2023-05-10T01:00:15;118.32;;;46.03;;
19205;SDS011;59358;52.134;5.596;2023-05-10T01:02:45;113.60;;;45.53;;
19205;SDS011;59358;52.134;5.596;2023-05-10T01:05:12;118.93;;;48.95;;
19205;SDS011;59358;52.134;5.596;2023-05-10T01:07:39;122.03;;;47.30;;
19205;SDS011;59358;52.134;5.596;2023-05-10T01:10:07;135.23;;;51.63;;
19205;SDS011;59358;52.134;5.596;2023-05-10T01:12:35;136.20;;;51.75;;
19205;SDS011;59358;52.134;5.596;2023-05-10T01:15:05;131.40;;;50.97;;
19205;SDS011;59358;52.134;5.596;2023-05-10T01:17:34;138.50;;;51.10;;
19205;SDS011;59358;52.134;5.596;2023-05-10T01:20:05;142.38;;;54.85;;
19205;SDS011;59358;52.134;5.596;2023-05-10T01:28:47;150.73;;;53.45;;
19205;SDS011;59358;52.134;5.596;2023-05-10T01:34:44;141.05;;;54.78;;
19205;SDS011;59358;52.134;5.596;2023-05-10T01:37:20;144.63;;;56.13;;
19205;SDS011;59358;52.134;5.596;2023-05-10T01:39:52;143.52;;;54.28;;
19205;SDS011;59358;52.134;5.596;2023-05-10T01:42:26;143.07;;;56.83;;
19205;SDS011;59358;52.134;5.596;2023-05-10T01:45:02;139.18;;;53.95;;
19205;SDS011;59358;52.134;5.596;2023-05-10T01:47:38;149.25;;;55.28;;
19205;SDS011;59358;52.134;5.596;2023-05-10T01:50:09;151.98;;;57.15;;
19205;SDS011;59358;52.134;5.596;2023-05-10T01:52:42;144.75;;;55.40;;
19205;SDS011;59358;52.134;5.596;2023-05-10T01:55:18;148.55;;;56.45;;
19205;SDS011;59358;52.134;5.596;2023-05-10T01:57:47;155.00;;;57.47;;
19205;SDS011;59358;52.134;5.596;2023-05-10T02:03:45;147.85;;;56.65;;
19205;SDS011;59358;52.134;5.596;2023-05-10T02:06:13;145.82;;;55.17;;
19205;SDS011;59358;52.134;5.596;2023-05-10T02:08:42;145.73;;;55.80;;
19205;SDS011;59358;52.134;5.596;2023-05-10T02:11:12;141.05;;;56.63;;
19205;SDS011;59358;52.134;5.596;2023-05-10T02:13:39;142.60;;;54.20;;
19205;SDS011;59358;52.134;5.596;2023-05-10T02:16:08;149.27;;;56.72;;
19205;SDS011;59358;52.134;5.596;2023-05-10T02:18:35;140.48;;;55.60;;
19205;SDS011;59358;52.134;5.596;2023-05-10T02:21:04;140.98;;;54.53;;
19205;SDS011;59358;52.134;5.596;2023-05-10T02:23:31;138.85;;;53.83;;
19205;SDS011;59358;52.134;5.596;2023-05-10T02:25:58;135.48;;;52.67;;
19205;SDS011;59358;52.134;5.596;2023-05-10T02:28:28;131.45;;;52.15;;
19205;SDS011;59358;52.134;5.596;2023-05-10T02:30:56;137.38;;;53.80;;
19205;SDS011;59358;52.134;5.596;2023-05-10T02:33:23;134.75;;;51.40;;
19205;SDS011;59358;52.134;5.596;2023-05-10T02:35:51;133.30;;;53.30;;
19205;SDS011;59358;52.134;5.596;2023-05-10T02:38:20;137.75;;;53.22;;
19205;SDS011;59358;52.134;5.596;2023-05-10T02:40:49;131.82;;;51.92;;
19205;SDS011;59358;52.134;5.596;2023-05-10T02:43:17;131.73;;;50.40;;
19205;SDS011;59358;52.134;5.596;2023-05-10T02:45:46;138.38;;;52.25;;
19205;SDS011;59358;52.134;5.596;2023-05-10T02:48:14;139.32;;;51.38;;
19205;SDS011;59358;52.134;5.596;2023-05-10T02:50:45;132.50;;;52.13;;
19205;SDS011;59358;52.134;5.596;2023-05-10T02:53:47;130.73;;;51.85;;
19205;SDS011;59358;52.134;5.596;2023-05-10T02:56:19;140.65;;;53.08;;
19205;SDS011;59358;52.134;5.596;2023-05-10T02:58:51;143.18;;;52.58;;
19205;SDS011;59358;52.134;5.596;2023-05-10T03:01:18;138.43;;;54.80;;
19205;SDS011;59358;52.134;5.596;2023-05-10T03:03:45;145.57;;;54.22;;
19205;SDS011;59358;52.134;5.596;2023-05-10T03:06:11;134.25;;;51.97;;
19205;SDS011;59358;52.134;5.596;2023-05-10T03:08:38;150.30;;;54.80;;
19205;SDS011;59358;52.134;5.596;2023-05-10T03:11:12;144.50;;;52.40;;
19205;SDS011;59358;52.134;5.596;2023-05-10T03:13:55;142.00;;;53.30;;
19205;SDS011;59358;52.134;5.596;2023-05-10T03:16:29;137.55;;;50.78;;
19205;SDS011;59358;52.134;5.596;2023-05-10T03:19:11;139.20;;;51.88;;
19205;SDS011;59358;52.134;5.596;2023-05-10T03:21:42;127.05;;;48.10;;
19205;SDS011;59358;52.134;5.596;2023-05-10T03:24:15;147.13;;;52.88;;
19205;SDS011;59358;52.134;5.596;2023-05-10T03:26:46;137.93;;;50.38;;
19205;SDS011;59358;52.134;5.596;2023-05-10T03:29:14;142.88;;;52.63;;
19205;SDS011;59358;52.134;5.596;2023-05-10T03:31:42;137.95;;;51.13;;
19205;SDS011;59358;52.134;5.596;2023-05-10T03:34:09;138.43;;;51.70;;
19205;SDS011;59358;52.134;5.596;2023-05-10T03:36:36;147.50;;;53.22;;
19205;SDS011;59358;52.134;5.596;2023-05-10T03:39:03;146.00;;;52.38;;
19205;SDS011;59358;52.134;5.596;2023-05-10T03:41:29;144.73;;;53.33;;
19205;SDS011;59358;52.134;5.596;2023-05-10T03:43:57;152.57;;;53.75;;
19205;SDS011;59358;52.134;5.596;2023-05-10T03:46:24;154.68;;;54.80;;
19205;SDS011;59358;52.134;5.596;2023-05-10T03:48:51;157.73;;;51.90;;
19205;SDS011;59358;52.134;5.596;2023-05-10T03:51:18;164.85;;;54.55;;
19205;SDS011;59358;52.134;5.596;2023-05-10T03:53:45;181.68;;;57.55;;
19205;SDS011;59358;52.134;5.596;2023-05-10T03:56:12;171.88;;;55.10;;
19205;SDS011;59358;52.134;5.596;2023-05-10T03:58:39;172.80;;;53.90;;
19205;SDS011;59358;52.134;5.596;2023-05-10T04:01:07;172.30;;;53.95;;
19205;SDS011;59358;52.134;5.596;2023-05-10T04:03:34;182.18;;;57.05;;
19205;SDS011;59358;52.134;5.596;2023-05-10T04:06:01;189.13;;;56.00;;
19205;SDS011;59358;52.134;5.596;2023-05-10T04:08:28;189.45;;;56.88;;
19205;SDS011;59358;52.134;5.596;2023-05-10T04:11:04;190.93;;;57.72;;
19205;SDS011;59358;52.134;5.596;2023-05-10T04:13:32;209.02;;;60.42;;
19205;SDS011;59358;52.134;5.596;2023-05-10T04:15:58;196.65;;;57.70;;
19205;SDS011;59358;52.134;5.596;2023-05-10T04:18:27;193.57;;;56.20;;
19205;SDS011;59358;52.134;5.596;2023-05-10T04:20:53;193.75;;;58.08;;
19205;SDS011;59358;52.134;5.596;2023-05-10T04:23:20;195.63;;;56.38;;
19205;SDS011;59358;52.134;5.596;2023-05-10T04:25:47;193.55;;;58.70;;
19205;SDS011;59358;52.134;5.596;2023-05-10T04:28:14;201.27;;;56.97;;
19205;SDS011;59358;52.134;5.596;2023-05-10T04:30:40;176.38;;;55.83;;
19205;SDS011;59358;52.134;5.596;2023-05-10T04:33:07;184.88;;;56.95;;
19205;SDS011;59358;52.134;5.596;2023-05-10T04:35:35;185.52;;;55.90;;
19205;SDS011;59358;52.134;5.596;2023-05-10T04:38:02;179.45;;;52.05;;
19205;SDS011;59358;52.134;5.596;2023-05-10T04:40:29;183.93;;;56.60;;
19205;SDS011;59358;52.134;5.596;2023-05-10T04:42:56;171.90;;;53.15;;
19205;SDS011;59358;52.134;5.596;2023-05-10T04:45:22;165.57;;;51.72;;
19205;SDS011;59358;52.134;5.596;2023-05-10T04:47:49;160.15;;;50.88;;
19205;SDS011;59358;52.134;5.596;2023-05-10T04:50:16;178.35;;;53.00;;
19205;SDS011;59358;52.134;5.596;2023-05-10T04:52:44;174.57;;;53.22;;
19205;SDS011;59358;52.134;5.596;2023-05-10T04:55:11;165.48;;;52.30;;
19205;SDS011;59358;52.134;5.596;2023-05-10T04:57:38;162.98;;;52.92;;
19205;SDS011;59358;52.134;5.596;2023-05-10T05:00:06;151.55;;;50.88;;
19205;SDS011;59358;52.134;5.596;2023-05-10T05:02:33;165.05;;;51.25;;
19205;SDS011;59358;52.134;5.596;2023-05-10T05:05:00;155.75;;;51.60;;
19205;SDS011;59358;52.134;5.596;2023-05-10T05:07:26;159.10;;;51.85;;
19205;SDS011;59358;52.134;5.596;2023-05-10T05:09:55;162.02;;;52.28;;
19205;SDS011;59358;52.134;5.596;2023-05-10T05:12:21;151.50;;;50.13;;
19205;SDS011;59358;52.134;5.596;2023-05-10T05:14:48;161.98;;;51.58;;
19205;SDS011;59358;52.134;5.596;2023-05-10T05:17:15;142.75;;;46.38;;
19205;SDS011;59358;52.134;5.596;2023-05-10T05:19:42;148.00;;;49.85;;
19205;SDS011;59358;52.134;5.596;2023-05-10T05:22:08;160.43;;;49.30;;
19205;SDS011;59358;52.134;5.596;2023-05-10T05:24:35;148.48;;;49.53;;
19205;SDS011;59358;52.134;5.596;2023-05-10T05:27:04;155.88;;;50.55;;
19205;SDS011;59358;52.134;5.596;2023-05-10T05:29:31;153.90;;;52.65;;
19205;SDS011;59358;52.134;5.596;2023-05-10T05:31:58;147.65;;;50.17;;
19205;SDS011;59358;52.134;5.596;2023-05-10T05:34:26;158.10;;;50.72;;
19205;SDS011;59358;52.134;5.596;2023-05-10T05:36:52;159.07;;;49.70;;
19205;SDS011;59358;52.134;5.596;2023-05-10T05:39:20;154.57;;;52.05;;
19205;SDS011;59358;52.134;5.596;2023-05-10T05:41:47;156.02;;;49.55;;
19205;SDS011;59358;52.134;5.596;2023-05-10T05:44:15;161.88;;;49.15;;
19205;SDS011;59358;52.134;5.596;2023-05-10T05:46:42;158.63;;;52.05;;
19205;SDS011;59358;52.134;5.596;2023-05-10T05:49:09;168.60;;;50.58;;
19205;SDS011;59358;52.134;5.596;2023-05-10T05:51:35;168.40;;;52.63;;
19205;SDS011;59358;52.134;5.596;2023-05-10T05:54:02;162.85;;;51.25;;
19205;SDS011;59358;52.134;5.596;2023-05-10T05:56:29;175.70;;;52.70;;
19205;SDS011;59358;52.134;5.596;2023-05-10T05:58:56;172.63;;;52.45;;
19205;SDS011;59358;52.134;5.596;2023-05-10T06:01:24;172.48;;;52.50;;
19205;SDS011;59358;52.134;5.596;2023-05-10T06:03:51;166.73;;;52.58;;
19205;SDS011;59358;52.134;5.596;2023-05-10T06:06:18;189.00;;;54.05;;
19205;SDS011;59358;52.134;5.596;2023-05-10T06:08:45;185.45;;;56.53;;
19205;SDS011;59358;52.134;5.596;2023-05-10T06:11:12;170.05;;;52.60;;
19205;SDS011;59358;52.134;5.596;2023-05-10T06:13:39;186.38;;;55.80;;
19205;SDS011;59358;52.134;5.596;2023-05-10T06:16:07;178.80;;;56.47;;
19205;SDS011;59358;52.134;5.596;2023-05-10T06:18:35;163.63;;;51.90;;
19205;SDS011;59358;52.134;5.596;2023-05-10T06:21:02;179.65;;;53.97;;
19205;SDS011;59358;52.134;5.596;2023-05-10T06:23:29;168.38;;;57.03;;
19205;SDS011;59358;52.134;5.596;2023-05-10T06:25:55;159.65;;;54.60;;
19205;SDS011;59358;52.134;5.596;2023-05-10T06:28:22;157.30;;;52.40;;
19205;SDS011;59358;52.134;5.596;2023-05-10T06:30:49;163.55;;;58.60;;
19205;SDS011;59358;52.134;5.596;2023-05-10T06:33:16;150.68;;;55.05;;
19205;SDS011;59358;52.134;5.596;2023-05-10T06:35:44;153.40;;;55.80;;
19205;SDS011;59358;52.134;5.596;2023-05-10T06:38:11;142.15;;;55.03;;
19205;SDS011;59358;52.134;5.596;2023-05-10T06:40:40;144.85;;;55.17;;
19205;SDS011;59358;52.134;5.596;2023-05-10T06:43:07;148.25;;;55.38;;
19205;SDS011;59358;52.134;5.596;2023-05-10T06:45:34;135.98;;;55.33;;
19205;SDS011;59358;52.134;5.596;2023-05-10T06:48:01;126.88;;;51.58;;
19205;SDS011;59358;52.134;5.596;2023-05-10T06:50:28;121.40;;;50.15;;
19205;SDS011;59358;52.134;5.596;2023-05-10T06:52:56;124.57;;;50.80;;
19205;SDS011;59358;52.134;5.596;2023-05-10T06:55:23;118.60;;;49.50;;
19205;SDS011;59358;52.134;5.596;2023-05-10T06:57:50;112.60;;;49.80;;
19205;SDS011;59358;52.134;5.596;2023-05-10T07:00:17;102.68;;;45.83;;
19205;SDS011;59358;52.134;5.596;2023-05-10T07:02:44;103.63;;;46.20;;
19205;SDS011;59358;52.134;5.596;2023-05-10T07:05:11;98.43;;;42.55;;
19205;SDS011;59358;52.134;5.596;2023-05-10T07:07:39;83.75;;;39.22;;
19205;SDS011;59358;52.134;5.596;2023-05-10T07:10:07;80.05;;;37.17;;
19205;SDS011;59358;52.134;5.596;2023-05-10T07:12:35;84.30;;;36.55;;
19205;SDS011;59358;52.134;5.596;2023-05-10T07:15:02;71.68;;;34.92;;
19205;SDS011;59358;52.134;5.596;2023-05-10T07:17:29;72.68;;;33.97;;
19205;SDS011;59358;52.134;5.596;2023-05-10T07:19:56;61.50;;;30.30;;
19205;SDS011;59358;52.134;5.596;2023-05-10T07:22:23;56.88;;;29.02;;
19205;SDS011;59358;52.134;5.596;2023-05-10T07:24:50;55.65;;;28.88;;
19205;SDS011;59358;52.134;5.596;2023-05-10T07:27:18;49.78;;;26.92;;
19205;SDS011;59358;52.134;5.596;2023-05-10T07:29:45;52.55;;;25.90;;
19205;SDS011;59358;52.134;5.596;2023-05-10T07:32:12;43.97;;;23.15;;
19205;SDS011;59358;52.134;5.596;2023-05-10T07:34:38;43.58;;;23.02;;
19205;SDS011;59358;52.134;5.596;2023-05-10T07:37:05;47.17;;;24.10;;
19205;SDS011;59358;52.134;5.596;2023-05-10T07:39:32;43.03;;;23.33;;
19205;SDS011;59358;52.134;5.596;2023-05-10T07:41:59;43.05;;;23.98;;
19205;SDS011;59358;52.134;5.596;2023-05-10T07:44:27;37.58;;;22.17;;
19205;SDS011;59358;52.134;5.596;2023-05-10T07:46:54;34.33;;;20.30;;
19205;SDS011;59358;52.134;5.596;2023-05-10T07:49:21;32.83;;;18.42;;
19205;SDS011;59358;52.134;5.596;2023-05-10T07:51:49;29.83;;;18.25;;
19205;SDS011;59358;52.134;5.596;2023-05-10T07:54:15;30.52;;;18.25;;
19205;SDS011;59358;52.134;5.596;2023-05-10T07:56:42;32.03;;;18.48;;
19205;SDS011;59358;52.134;5.596;2023-05-10T07:59:14;30.55;;;17.58;;
19205;SDS011;59358;52.134;5.596;2023-05-10T08:01:42;31.15;;;17.73;;
19205;SDS011;59358;52.134;5.596;2023-05-10T08:04:10;36.15;;;17.33;;
19205;SDS011;59358;52.134;5.596;2023-05-10T08:06:37;34.67;;;17.63;;
19205;SDS011;59358;52.134;5.596;2023-05-10T08:09:04;33.50;;;16.35;;
19205;SDS011;59358;52.134;5.596;2023-05-10T08:11:31;26.08;;;16.45;;
19205;SDS011;59358;52.134;5.596;2023-05-10T08:13:58;29.48;;;17.48;;
19205;SDS011;59358;52.134;5.596;2023-05-10T08:16:25;26.27;;;17.05;;
19205;SDS011;59358;52.134;5.596;2023-05-10T08:18:53;28.20;;;16.15;;
19205;SDS011;59358;52.134;5.596;2023-05-10T08:21:20;30.88;;;17.25;;
19205;SDS011;59358;52.134;5.596;2023-05-10T08:23:47;27.65;;;16.75;;
19205;SDS011;59358;52.134;5.596;2023-05-10T08:26:14;32.20;;;17.42;;
19205;SDS011;59358;52.134;5.596;2023-05-10T08:28:41;28.35;;;16.60;;
19205;SDS011;59358;52.134;5.596;2023-05-10T08:31:07;32.40;;;17.77;;
19205;SDS011;59358;52.134;5.596;2023-05-10T08:33:34;28.38;;;16.85;;
19205;SDS011;59358;52.134;5.596;2023-05-10T08:36:02;22.25;;;14.40;;
19205;SDS011;59358;52.134;5.596;2023-05-10T08:38:29;20.75;;;12.88;;
19205;SDS011;59358;52.134;5.596;2023-05-10T08:40:56;17.52;;;12.55;;
19205;SDS011;59358;52.134;5.596;2023-05-10T08:43:25;22.80;;;13.95;;
19205;SDS011;59358;52.134;5.596;2023-05-10T08:45:54;20.88;;;13.15;;
19205;SDS011;59358;52.134;5.596;2023-05-10T08:48:22;22.83;;;15.60;;
19205;SDS011;59358;52.134;5.596;2023-05-10T08:50:52;27.33;;;15.75;;
19205;SDS011;59358;52.134;5.596;2023-05-10T08:53:22;20.35;;;13.85;;
19205;SDS011;59358;52.134;5.596;2023-05-10T08:55:51;22.42;;;14.60;;
19205;SDS011;59358;52.134;5.596;2023-05-10T08:58:19;22.42;;;16.00;;
19205;SDS011;59358;52.134;5.596;2023-05-10T09:00:46;20.40;;;15.23;;
19205;SDS011;59358;52.134;5.596;2023-05-10T09:03:14;24.15;;;15.07;;
19205;SDS011;59358;52.134;5.596;2023-05-10T09:05:41;22.50;;;15.82;;
19205;SDS011;59358;52.134;5.596;2023-05-10T09:08:09;26.00;;;16.95;;
19205;SDS011;59358;52.134;5.596;2023-05-10T09:10:39;28.73;;;16.80;;
19205;SDS011;59358;52.134;5.596;2023-05-10T09:13:08;26.50;;;16.77;;
19205;SDS011;59358;52.134;5.596;2023-05-10T09:15:36;22.17;;;14.18;;
19205;SDS011;59358;52.134;5.596;2023-05-10T09:18:03;19.70;;;14.60;;
19205;SDS011;59358;52.134;5.596;2023-05-10T09:20:30;22.92;;;15.95;;
19205;SDS011;59358;52.134;5.596;2023-05-10T09:22:57;23.42;;;15.07;;
19205;SDS011;59358;52.134;5.596;2023-05-10T09:25:24;21.40;;;13.50;;
19205;SDS011;59358;52.134;5.596;2023-05-10T09:27:52;19.55;;;14.05;;
19205;SDS011;59358;52.134;5.596;2023-05-10T09:30:23;21.52;;;14.63;;
19205;SDS011;59358;52.134;5.596;2023-05-10T09:32:51;25.38;;;16.63;;
19205;SDS011;59358;52.134;5.596;2023-05-10T09:35:19;24.33;;;15.05;;
19205;SDS011;59358;52.134;5.596;2023-05-10T09:37:50;21.80;;;14.65;;
19205;SDS011;59358;52.134;5.596;2023-05-10T09:40:19;23.30;;;15.35;;
19205;SDS011;59358;52.134;5.596;2023-05-10T09:42:54;22.73;;;15.23;;
19205;SDS011;59358;52.134;5.596;2023-05-10T09:45:23;22.85;;;15.60;;
19205;SDS011;59358;52.134;5.596;2023-05-10T09:47:52;20.38;;;14.80;;
19205;SDS011;59358;52.134;5.596;2023-05-10T09:50:19;18.77;;;11.95;;
19205;SDS011;59358;52.134;5.596;2023-05-10T09:52:47;18.00;;;12.52;;
19205;SDS011;59358;52.134;5.596;2023-05-10T09:55:16;19.92;;;12.88;;
19205;SDS011;59358;52.134;5.596;2023-05-10T09:57:44;16.40;;;13.25;;
19205;SDS011;59358;52.134;5.596;2023-05-10T10:00:17;18.50;;;12.18;;
19205;SDS011;59358;52.134;5.596;2023-05-10T10:02:46;17.90;;;12.20;;
19205;SDS011;59358;52.134;5.596;2023-05-10T10:05:13;18.00;;;12.60;;
19205;SDS011;59358;52.134;5.596;2023-05-10T10:07:41;15.13;;;11.05;;
19205;SDS011;59358;52.134;5.596;2023-05-10T10:10:08;10.52;;;8.98;;
19205;SDS011;59358;52.134;5.596;2023-05-10T10:12:37;13.10;;;10.05;;
19205;SDS011;59358;52.134;5.596;2023-05-10T10:15:06;13.70;;;9.35;;
19205;SDS011;59358;52.134;5.596;2023-05-10T10:17:36;8.05;;;6.93;;
19205;SDS011;59358;52.134;5.596;2023-05-10T10:20:04;9.70;;;6.85;;
19205;SDS011;59358;52.134;5.596;2023-05-10T10:22:31;10.23;;;7.10;;
19205;SDS011;59358;52.134;5.596;2023-05-10T10:24:58;10.52;;;7.85;;
19205;SDS011;59358;52.134;5.596;2023-05-10T10:27:28;10.27;;;6.68;;
19205;SDS011;59358;52.134;5.596;2023-05-10T10:30:03;9.10;;;6.88;;
19205;SDS011;59358;52.134;5.596;2023-05-10T10:32:46;8.48;;;7.38;;
19205;SDS011;59358;52.134;5.596;2023-05-10T10:35:29;8.90;;;6.80;;
19205;SDS011;59358;52.134;5.596;2023-05-10T10:37:57;7.70;;;5.75;;
19205;SDS011;59358;52.134;5.596;2023-05-10T10:40:24;7.90;;;5.72;;
19205;SDS011;59358;52.134;5.596;2023-05-10T10:42:52;7.00;;;6.15;;
19205;SDS011;59358;52.134;5.596;2023-05-10T10:45:20;9.10;;;6.30;;
19205;SDS011;59358;52.134;5.596;2023-05-10T10:47:50;9.52;;;7.05;;
19205;SDS011;59358;52.134;5.596;2023-05-10T10:50:43;9.43;;;6.95;;
19205;SDS011;59358;52.134;5.596;2023-05-10T10:53:11;10.30;;;6.82;;
19205;SDS011;59358;52.134;5.596;2023-05-10T10:55:44;8.60;;;6.45;;
19205;SDS011;59358;52.134;5.596;2023-05-10T10:58:13;9.70;;;7.05;;
19205;SDS011;59358;52.134;5.596;2023-05-10T11:01:08;9.93;;;6.47;;
19205;SDS011;59358;52.134;5.596;2023-05-10T11:03:38;8.90;;;6.45;;
19205;SDS011;59358;52.134;5.596;2023-05-10T11:06:05;9.88;;;6.90;;
19205;SDS011;59358;52.134;5.596;2023-05-10T11:08:32;10.25;;;6.43;;
19205;SDS011;59358;52.134;5.596;2023-05-10T11:11:04;11.50;;;7.30;;
19205;SDS011;59358;52.134;5.596;2023-05-10T11:13:33;9.88;;;7.15;;
19205;SDS011;59358;52.134;5.596;2023-05-10T11:16:10;9.05;;;7.30;;
19205;SDS011;59358;52.134;5.596;2023-05-10T11:18:40;10.60;;;8.23;;
19205;SDS011;59358;52.134;5.596;2023-05-10T11:21:08;16.73;;;9.82;;
19205;SDS011;59358;52.134;5.596;2023-05-10T11:23:47;11.98;;;8.80;;
19205;SDS011;59358;52.134;5.596;2023-05-10T11:26:15;12.73;;;9.10;;
19205;SDS011;59358;52.134;5.596;2023-05-10T11:28:43;11.73;;;8.43;;
19205;SDS011;59358;52.134;5.596;2023-05-10T11:31:10;13.10;;;8.35;;
19205;SDS011;59358;52.134;5.596;2023-05-10T11:33:44;12.25;;;8.77;;
19205;SDS011;59358;52.134;5.596;2023-05-10T11:36:11;14.88;;;9.70;;
19205;SDS011;59358;52.134;5.596;2023-05-10T11:38:38;10.93;;;8.27;;
19205;SDS011;59358;52.134;5.596;2023-05-10T11:41:05;10.20;;;8.30;;
19205;SDS011;59358;52.134;5.596;2023-05-10T11:43:34;10.32;;;8.43;;
19205;SDS011;59358;52.134;5.596;2023-05-10T11:46:03;14.32;;;8.98;;
19205;SDS011;59358;52.134;5.596;2023-05-10T11:48:30;11.88;;;8.73;;
19205;SDS011;59358;52.134;5.596;2023-05-10T11:50:58;12.25;;;7.93;;
19205;SDS011;59358;52.134;5.596;2023-05-10T11:53:29;10.02;;;8.23;;
19205;SDS011;59358;52.134;5.596;2023-05-10T11:56:02;11.25;;;7.88;;
19205;SDS011;59358;52.134;5.596;2023-05-10T11:58:30;8.98;;;6.93;;
19205;SDS011;59358;52.134;5.596;2023-05-10T12:00:57;9.50;;;6.93;;
19205;SDS011;59358;52.134;5.596;2023-05-10T12:03:24;10.15;;;7.68;;
19205;SDS011;59358;52.134;5.596;2023-05-10T12:05:51;9.70;;;7.65;;
19205;SDS011;59358;52.134;5.596;2023-05-10T12:08:21;11.85;;;8.32;;
19205;SDS011;59358;52.134;5.596;2023-05-10T12:10:48;11.65;;;8.05;;
19205;SDS011;59358;52.134;5.596;2023-05-10T12:13:16;10.48;;;7.82;;
19205;SDS011;59358;52.134;5.596;2023-05-10T12:15:43;10.13;;;7.38;;
19205;SDS011;59358;52.134;5.596;2023-05-10T12:18:10;13.23;;;7.43;;
19205;SDS011;59358;52.134;5.596;2023-05-10T12:20:37;11.30;;;6.78;;
19205;SDS011;59358;52.134;5.596;2023-05-10T12:23:04;7.93;;;6.68;;
19205;SDS011;59358;52.134;5.596;2023-05-10T12:25:36;10.65;;;6.72;;
19205;SDS011;59358;52.134;5.596;2023-05-10T12:28:04;10.00;;;7.03;;
19205;SDS011;59358;52.134;5.596;2023-05-10T12:30:32;10.90;;;7.88;;
19205;SDS011;59358;52.134;5.596;2023-05-10T12:33:00;8.18;;;6.03;;
19205;SDS011;59358;52.134;5.596;2023-05-10T12:35:31;11.43;;;6.68;;
19205;SDS011;59358;52.134;5.596;2023-05-10T12:37:58;9.63;;;6.35;;
19205;SDS011;59358;52.134;5.596;2023-05-10T12:40:25;10.40;;;6.60;;
19205;SDS011;59358;52.134;5.596;2023-05-10T12:42:53;9.23;;;6.07;;
19205;SDS011;59358;52.134;5.596;2023-05-10T12:45:20;10.43;;;5.60;;
19205;SDS011;59358;52.134;5.596;2023-05-10T12:47:47;7.43;;;5.80;;
19205;SDS011;59358;52.134;5.596;2023-05-10T12:50:14;7.90;;;5.82;;
19205;SDS011;59358;52.134;5.596;2023-05-10T12:52:41;10.20;;;6.70;;
19205;SDS011;59358;52.134;5.596;2023-05-10T12:55:08;10.35;;;5.72;;
19205;SDS011;59358;52.134;5.596;2023-05-10T12:57:34;7.70;;;5.55;;
19205;SDS011;59358;52.134;5.596;2023-05-10T13:00:03;7.35;;;5.43;;
19205;SDS011;59358;52.134;5.596;2023-05-10T13:02:31;8.43;;;5.47;;
19205;SDS011;59358;52.134;5.596;2023-05-10T13:04:57;4.93;;;4.43;;
19205;SDS011;59358;52.134;5.596;2023-05-10T13:07:25;5.28;;;4.30;;
19205;SDS011;59358;52.134;5.596;2023-05-10T13:09:52;3.88;;;3.47;;
19205;SDS011;59358;52.134;5.596;2023-05-10T13:12:18;6.25;;;4.38;;
19205;SDS011;59358;52.134;5.596;2023-05-10T13:14:45;5.97;;;3.67;;
19205;SDS011;59358;52.134;5.596;2023-05-10T13:17:13;5.90;;;4.10;;
19205;SDS011;59358;52.134;5.596;2023-05-10T13:19:40;8.05;;;3.90;;
19205;SDS011;59358;52.134;5.596;2023-05-10T13:22:07;4.93;;;3.50;;
19205;SDS011;59358;52.134;5.596;2023-05-10T13:24:34;4.47;;;3.50;;
19205;SDS011;59358;52.134;5.596;2023-05-10T13:27:00;3.53;;;3.20;;
19205;SDS011;59358;52.134;5.596;2023-05-10T13:29:27;3.53;;;3.10;;
19205;SDS011;59358;52.134;5.596;2023-05-10T13:31:54;5.07;;;3.55;;
19205;SDS011;59358;52.134;5.596;2023-05-10T13:34:22;4.38;;;3.92;;
19205;SDS011;59358;52.134;5.596;2023-05-10T13:36:49;5.88;;;3.42;;
19205;SDS011;59358;52.134;5.596;2023-05-10T13:39:16;4.40;;;3.55;;
19205;SDS011;59358;52.134;5.596;2023-05-10T13:41:43;4.43;;;3.83;;
19205;SDS011;59358;52.134;5.596;2023-05-10T13:44:11;5.20;;;3.88;;
19205;SDS011;59358;52.134;5.596;2023-05-10T13:46:38;7.10;;;3.75;;
19205;SDS011;59358;52.134;5.596;2023-05-10T13:49:05;6.78;;;5.10;;
19205;SDS011;59358;52.134;5.596;2023-05-10T13:51:34;7.60;;;5.60;;
19205;SDS011;59358;52.134;5.596;2023-05-10T13:54:01;10.20;;;7.13;;
19205;SDS011;59358;52.134;5.596;2023-05-10T13:56:28;12.02;;;8.30;;
19205;SDS011;59358;52.134;5.596;2023-05-10T13:58:55;11.55;;;7.15;;
19205;SDS011;59358;52.134;5.596;2023-05-10T14:01:23;10.90;;;7.75;;
19205;SDS011;59358;52.134;5.596;2023-05-10T14:03:49;9.60;;;6.47;;
19205;SDS011;59358;52.134;5.596;2023-05-10T14:06:16;8.38;;;6.00;;
19205;SDS011;59358;52.134;5.596;2023-05-10T14:08:44;8.40;;;5.78;;
19205;SDS011;59358;52.134;5.596;2023-05-10T14:11:11;7.97;;;5.57;;
19205;SDS011;59358;52.134;5.596;2023-05-10T14:13:38;8.50;;;5.38;;
19205;SDS011;59358;52.134;5.596;2023-05-10T14:16:06;6.75;;;5.13;;
19205;SDS011;59358;52.134;5.596;2023-05-10T14:18:32;8.65;;;5.10;;
19205;SDS011;59358;52.134;5.596;2023-05-10T14:20:59;7.57;;;5.32;;
19205;SDS011;59358;52.134;5.596;2023-05-10T14:23:27;11.18;;;5.88;;
19205;SDS011;59358;52.134;5.596;2023-05-10T14:25:56;9.10;;;5.85;;
19205;SDS011;59358;52.134;5.596;2023-05-10T14:28:23;8.60;;;5.55;;
19205;SDS011;59358;52.134;5.596;2023-05-10T14:30:50;10.30;;;6.20;;
19205;SDS011;59358;52.134;5.596;2023-05-10T14:33:17;9.95;;;6.50;;
19205;SDS011;59358;52.134;5.596;2023-05-10T14:35:44;11.18;;;6.70;;
19205;SDS011;59358;52.134;5.596;2023-05-10T14:38:11;13.55;;;7.22;;
19205;SDS011;59358;52.134;5.596;2023-05-10T14:40:38;11.75;;;6.82;;
19205;SDS011;59358;52.134;5.596;2023-05-10T14:43:06;14.18;;;8.07;;